createdAt,value
2019-03-20T00:00:26.629Z,26.40
2019-03-20T00:02:58.898Z,26.30
2019-03-20T00:05:30.802Z,26.30
2019-03-20T00:08:02.742Z,26.30
2019-03-20T00:10:34.717Z,26.40
2019-03-20T00:13:06.719Z,26.40
2019-03-20T00:15:39.678Z,26.50
2019-03-20T00:18:12.201Z,26.50
2019-03-20T00:20:44.178Z,26.50
2019-03-20T00:23:16.162Z,26.50
2019-03-20T00:25:48.092Z,26.50
2019-03-20T00:28:20.116Z,26.50
2019-03-20T00:30:52.022Z,26.50
2019-03-20T00:33:23.970Z,26.60
2019-03-20T00:35:55.900Z,26.60
2019-03-20T00:38:27.834Z,26.50
2019-03-20T00:40:59.743Z,26.50
2019-03-20T00:43:31.562Z,26.50
2019-03-20T00:46:03.410Z,26.50
2019-03-20T00:48:35.586Z,26.50
2019-03-20T00:51:07.460Z,26.50
2019-03-20T00:53:39.384Z,26.50
2019-03-20T00:56:11.309Z,26.50
2019-03-20T00:58:43.163Z,26.50
2019-03-20T01:01:15.160Z,26.40
2019-03-20T01:03:47.222Z,26.40
2019-03-20T01:06:20.074Z,26.40
2019-03-20T01:08:51.881Z,26.50
2019-03-20T01:11:23.865Z,26.50
2019-03-20T01:13:55.819Z,26.50
2019-03-20T01:16:27.694Z,26.40
2019-03-20T01:18:59.778Z,26.40
2019-03-20T01:21:31.646Z,26.40
2019-03-20T01:24:03.505Z,26.40
2019-03-20T01:26:35.352Z,26.40
2019-03-20T01:29:07.228Z,26.30
2019-03-20T01:31:39.146Z,26.30
2019-03-20T01:34:11.298Z,26.20
2019-03-20T01:36:43.174Z,26.20
2019-03-20T01:39:14.999Z,26.20
2019-03-20T01:41:46.856Z,26.10
2019-03-20T01:44:18.678Z,26.10
2019-03-20T01:46:50.554Z,26.10
2019-03-20T01:49:22.536Z,26.00
2019-03-20T01:51:54.418Z,26.00
2019-03-20T01:54:27.851Z,26.00
2019-03-20T01:56:59.659Z,26.00
2019-03-20T01:59:31.505Z,26.10
2019-03-20T02:02:03.462Z,26.10
2019-03-20T02:04:35.316Z,26.10
2019-03-20T02:07:07.163Z,26.10
2019-03-20T02:09:39.032Z,26.10
2019-03-20T02:12:10.858Z,26.10
2019-03-20T02:14:42.654Z,26.20
2019-03-20T02:17:14.498Z,26.20
2019-03-20T02:19:47.505Z,26.20
2019-03-20T02:22:19.436Z,26.20
2019-03-20T02:24:51.346Z,26.20
2019-03-20T02:27:23.213Z,26.20
2019-03-20T02:29:55.745Z,26.20
2019-03-20T02:32:27.564Z,26.20
2019-03-20T02:34:59.618Z,26.20
2019-03-20T02:37:31.573Z,26.20
2019-03-20T02:40:03.443Z,26.10
2019-03-20T02:42:35.333Z,26.10
2019-03-20T02:45:10.158Z,26.10
2019-03-20T02:47:41.989Z,26.10
2019-03-20T02:50:14.162Z,26.00
2019-03-20T02:52:46.013Z,26.00
2019-03-20T02:55:18.003Z,26.00
2019-03-20T02:57:49.877Z,26.00
2019-03-20T03:00:22.057Z,26.00
2019-03-20T03:02:53.949Z,26.00
2019-03-20T03:05:25.755Z,26.00
2019-03-20T03:07:57.709Z,26.00
2019-03-20T03:10:29.545Z,26.00
2019-03-20T03:13:01.379Z,26.00
2019-03-20T03:15:33.249Z,26.00
2019-03-20T03:18:05.102Z,26.00
2019-03-20T03:20:37.170Z,26.00
2019-03-20T03:23:08.989Z,25.90
2019-03-20T03:25:42.191Z,26.00
2019-03-20T03:28:14.026Z,26.00
2019-03-20T03:30:46.048Z,25.90
2019-03-20T03:33:17.938Z,25.90
2019-03-20T03:35:49.803Z,26.00
2019-03-20T03:38:21.859Z,26.00
2019-03-20T03:40:53.720Z,26.00
2019-03-20T03:43:25.539Z,26.00
2019-03-20T03:45:57.388Z,26.10
2019-03-20T03:48:29.361Z,26.10
2019-03-20T03:51:01.510Z,26.10
2019-03-20T03:53:33.305Z,26.20
2019-03-20T03:56:05.435Z,26.20
2019-03-20T03:58:37.396Z,26.20
2019-03-20T04:01:09.288Z,26.20
2019-03-20T04:03:41.197Z,26.20
2019-03-20T04:06:13.314Z,26.20
2019-03-20T04:08:45.152Z,26.20
2019-03-20T04:11:17.044Z,26.20
2019-03-20T04:13:49.850Z,26.20
2019-03-20T04:16:21.699Z,26.20
2019-03-20T04:18:53.608Z,26.20
2019-03-20T04:21:25.544Z,26.20
2019-03-20T04:23:57.406Z,26.20
2019-03-20T04:26:29.306Z,26.20
2019-03-20T04:29:01.214Z,26.20
2019-03-20T04:31:33.273Z,26.30
2019-03-20T04:34:05.146Z,26.20
2019-03-20T04:36:47.234Z,26.20
2019-03-20T04:39:10.867Z,26.20
2019-03-20T04:41:42.729Z,26.20
2019-03-20T04:44:14.712Z,26.20
2019-03-20T04:46:46.570Z,26.20
2019-03-20T04:49:18.386Z,26.10
2019-03-20T04:51:50.291Z,26.00
2019-03-20T04:54:22.126Z,26.00
2019-03-20T04:56:53.958Z,26.00
2019-03-20T04:59:25.807Z,26.00
2019-03-20T05:01:57.704Z,25.90
2019-03-20T05:04:29.578Z,26.00
2019-03-20T05:07:01.712Z,26.00
2019-03-20T05:09:33.558Z,26.00
2019-03-20T05:12:05.801Z,26.00
2019-03-20T05:14:37.719Z,26.00
2019-03-20T05:17:09.554Z,26.00
2019-03-20T05:19:41.539Z,26.00
2019-03-20T05:22:14.720Z,26.00
2019-03-20T05:24:46.570Z,26.00
2019-03-20T05:27:18.421Z,26.00
2019-03-20T05:29:50.302Z,26.00
2019-03-20T05:32:22.297Z,26.10
2019-03-20T05:34:54.148Z,26.00
2019-03-20T05:37:27.127Z,26.00
2019-03-20T05:39:59.135Z,26.00
2019-03-20T05:42:31.002Z,26.00
2019-03-20T05:45:02.888Z,26.10
2019-03-20T05:47:35.081Z,26.10
2019-03-20T05:50:07.990Z,26.20
2019-03-20T05:52:40.161Z,26.20
2019-03-20T05:55:14.531Z,26.30
2019-03-20T05:57:46.363Z,26.40
2019-03-20T06:00:18.817Z,26.40
2019-03-20T06:02:50.608Z,26.40
2019-03-20T06:05:22.448Z,26.40
2019-03-20T06:07:54.565Z,26.40
2019-03-20T06:10:26.402Z,26.40
2019-03-20T06:12:58.238Z,26.40
2019-03-20T06:15:30.076Z,26.40
2019-03-20T06:18:01.929Z,26.40
2019-03-20T06:20:34.066Z,26.40
2019-03-20T06:23:06.234Z,26.10
2019-03-20T06:25:38.044Z,26.30
2019-03-20T06:28:09.942Z,26.30
2019-03-20T06:30:41.793Z,26.40
2019-03-20T06:33:13.683Z,26.50
2019-03-20T06:35:45.577Z,26.50
2019-03-20T06:38:17.430Z,26.70
2019-03-20T06:40:49.267Z,26.60
2019-03-20T06:43:21.127Z,26.40
2019-03-20T06:45:52.967Z,26.60
2019-03-20T06:48:24.918Z,26.70
2019-03-20T06:50:57.882Z,26.80
2019-03-20T06:53:30.169Z,27.00
2019-03-20T06:56:02.037Z,27.20
2019-03-20T06:58:33.888Z,27.20
2019-03-20T07:01:14.189Z,27.30
2019-03-20T07:04:30.112Z,27.10
2019-03-20T07:07:20.951Z,27.20
2019-03-20T07:10:44.071Z,27.20
2019-03-20T07:13:15.923Z,27.40
2019-03-20T07:15:47.800Z,27.50
2019-03-20T07:18:20.602Z,27.80
2019-03-20T07:20:52.490Z,27.60
2019-03-20T07:23:24.280Z,27.70
2019-03-20T07:25:56.324Z,27.60
2019-03-20T07:28:28.169Z,27.60
2019-03-20T07:31:00.014Z,27.80
2019-03-20T07:33:32.234Z,27.60
2019-03-20T07:36:04.326Z,27.90
2019-03-20T07:38:36.164Z,27.40
2019-03-20T07:41:08.332Z,27.50
2019-03-20T07:43:40.188Z,27.70
2019-03-20T07:46:12.053Z,27.90
2019-03-20T07:48:44.721Z,27.70
2019-03-20T07:51:16.603Z,27.60
2019-03-20T07:53:48.428Z,28.00
2019-03-20T07:56:20.319Z,28.00
2019-03-20T07:58:52.194Z,28.20
2019-03-20T08:01:24.112Z,28.20
2019-03-20T08:03:57.235Z,28.20
2019-03-20T08:06:29.074Z,27.90
2019-03-20T08:09:00.911Z,27.60
2019-03-20T08:11:34.108Z,27.60
2019-03-20T08:14:06.063Z,27.80
2019-03-20T08:16:37.917Z,28.10
2019-03-20T08:19:09.810Z,28.10
2019-03-20T08:21:41.697Z,28.00
2019-03-20T08:24:13.535Z,27.90
2019-03-20T08:26:45.670Z,27.60
2019-03-20T08:29:17.770Z,27.90
2019-03-20T08:31:49.612Z,28.00
2019-03-20T08:34:21.551Z,28.00
2019-03-20T08:36:53.454Z,28.30
2019-03-20T08:39:25.368Z,28.70
2019-03-20T08:41:57.538Z,29.00
2019-03-20T08:44:29.473Z,29.10
2019-03-20T08:47:01.320Z,28.90
2019-03-20T08:49:33.296Z,29.10
2019-03-20T08:52:05.133Z,28.70
2019-03-20T08:54:37.035Z,28.50
2019-03-20T08:57:09.166Z,28.40
2019-03-20T08:59:41.071Z,28.60
2019-03-20T09:02:12.921Z,28.70
2019-03-20T09:04:44.743Z,28.90
2019-03-20T09:07:16.633Z,28.80
2019-03-20T09:09:50.792Z,28.90
2019-03-20T09:12:22.187Z,29.30
2019-03-20T09:14:54.044Z,29.50
2019-03-20T09:17:25.905Z,29.20
2019-03-20T09:19:57.800Z,28.90
2019-03-20T09:22:29.696Z,28.60
2019-03-20T09:25:01.575Z,28.90
2019-03-20T09:27:33.735Z,28.90
2019-03-20T09:30:06.702Z,28.80
2019-03-20T09:32:38.634Z,29.20
2019-03-20T09:35:10.893Z,28.40
2019-03-20T09:37:51.299Z,28.20
2019-03-20T09:40:18.012Z,28.10
2019-03-20T09:42:49.886Z,28.80
2019-03-20T09:45:22.125Z,29.40
2019-03-20T09:47:53.993Z,29.40
2019-03-20T09:50:25.864Z,29.00
2019-03-20T09:52:57.779Z,29.10
2019-03-20T09:55:29.671Z,29.40
2019-03-20T09:58:11.141Z,29.20
2019-03-20T10:00:35.207Z,29.40
2019-03-20T10:03:07.089Z,29.30
2019-03-20T10:05:39.003Z,29.60
2019-03-20T10:08:10.838Z,29.30
2019-03-20T10:10:42.746Z,29.70
2019-03-20T10:13:15.063Z,29.90
2019-03-20T10:15:46.934Z,30.10
2019-03-20T10:18:18.859Z,30.40
2019-03-20T10:20:50.805Z,30.40
2019-03-20T10:23:22.693Z,30.30
2019-03-20T10:25:54.586Z,30.30
2019-03-20T10:28:26.754Z,30.10
2019-03-20T10:30:58.609Z,29.80
2019-03-20T10:33:30.474Z,29.70
2019-03-20T10:36:02.378Z,29.80
2019-03-20T10:38:34.249Z,30.10
2019-03-20T10:41:06.103Z,30.40
2019-03-20T10:43:38.269Z,30.50
2019-03-20T10:46:10.149Z,30.00
2019-03-20T10:48:42.040Z,30.00
2019-03-20T10:51:13.933Z,30.00
2019-03-20T10:53:45.762Z,30.30
2019-03-20T10:56:17.615Z,30.10
2019-03-20T10:58:51.329Z,30.00
2019-03-20T11:01:24.291Z,30.30
2019-03-20T11:03:56.333Z,30.20
2019-03-20T11:06:28.299Z,30.30
2019-03-20T11:09:00.156Z,29.90
2019-03-20T11:11:32.088Z,29.60
2019-03-20T11:14:04.216Z,29.00
2019-03-20T11:16:36.118Z,28.80
2019-03-20T11:19:07.966Z,28.60
2019-03-20T11:21:39.825Z,29.10
2019-03-20T11:24:11.795Z,29.10
2019-03-20T11:26:43.825Z,29.10
2019-03-20T11:29:21.316Z,29.00
2019-03-20T11:31:49.264Z,28.90
2019-03-20T11:34:21.076Z,28.90
2019-03-20T11:36:53.081Z,29.30
2019-03-20T11:39:29.574Z,29.30
2019-03-20T11:41:58.515Z,29.30
2019-03-20T11:44:30.618Z,28.70
2019-03-20T11:47:02.622Z,28.70
2019-03-20T11:49:34.501Z,28.40
2019-03-20T11:52:06.581Z,28.70
2019-03-20T11:54:38.484Z,28.20
2019-03-20T11:57:10.356Z,28.10
2019-03-20T11:59:42.642Z,28.00
2019-03-20T12:02:14.513Z,28.80
2019-03-20T12:04:46.399Z,28.80
2019-03-20T12:07:19.234Z,29.30
2019-03-20T12:09:51.128Z,29.10
2019-03-20T12:12:23.003Z,29.50
2019-03-20T12:14:55.299Z,29.60
2019-03-20T12:17:27.175Z,29.80
2019-03-20T12:19:59.271Z,29.70
2019-03-20T12:22:31.151Z,29.90
2019-03-20T12:25:03.028Z,29.50
2019-03-20T12:27:34.875Z,29.60
2019-03-20T12:30:10.444Z,29.60
2019-03-20T12:32:42.374Z,29.60
2019-03-20T12:35:15.712Z,29.70
2019-03-20T12:37:48.234Z,29.70
2019-03-20T12:40:23.904Z,30.00
2019-03-20T12:42:56.092Z,29.80
2019-03-20T12:45:30.775Z,30.00
2019-03-20T12:48:02.711Z,30.10
2019-03-20T12:50:34.587Z,30.20
2019-03-20T12:53:06.734Z,29.80
2019-03-20T12:55:38.704Z,30.20
2019-03-20T12:58:10.639Z,30.50
2019-03-20T13:00:42.899Z,31.00
2019-03-20T13:03:14.838Z,31.30
2019-03-20T13:05:46.665Z,31.80
2019-03-20T13:08:18.559Z,32.80
2019-03-20T13:10:50.483Z,32.90
2019-03-20T13:13:22.450Z,32.80
2019-03-20T13:15:54.337Z,33.30
2019-03-20T13:18:26.167Z,33.10
2019-03-20T13:20:58.077Z,33.00
2019-03-20T13:23:32.634Z,33.50
2019-03-20T13:26:04.924Z,34.20
2019-03-20T13:28:36.855Z,35.10
2019-03-20T13:31:17.157Z,35.80
2019-03-20T13:33:49.393Z,36.50
2019-03-20T13:36:21.670Z,37.10
2019-03-20T13:38:53.734Z,37.30
2019-03-20T13:41:25.619Z,37.10
2019-03-20T13:43:57.445Z,37.70
2019-03-20T13:46:29.621Z,37.80
2019-03-20T13:49:01.435Z,37.60
2019-03-20T13:51:33.446Z,37.00
2019-03-20T13:54:05.343Z,36.90
2019-03-20T13:56:37.280Z,37.30
2019-03-20T13:59:09.190Z,37.50
2019-03-20T14:01:41.268Z,37.90
2019-03-20T14:04:13.327Z,38.30
2019-03-20T14:06:45.363Z,38.40
2019-03-20T14:09:17.252Z,38.30
2019-03-20T14:11:49.092Z,38.10
2019-03-20T14:14:20.898Z,38.30
2019-03-20T14:16:52.964Z,38.60
2019-03-20T14:19:24.764Z,38.80
2019-03-20T14:21:56.542Z,39.00
2019-03-20T14:24:28.304Z,39.00
2019-03-20T14:27:00.112Z,39.10
2019-03-20T14:29:31.902Z,39.10
2019-03-20T14:32:03.902Z,39.20
2019-03-20T14:34:35.679Z,39.60
2019-03-20T14:37:07.627Z,39.60
2019-03-20T14:39:39.601Z,39.80
2019-03-20T14:42:11.423Z,39.90
2019-03-20T14:44:43.259Z,40.20
2019-03-20T14:47:15.365Z,40.40
2019-03-20T14:49:47.147Z,40.30
2019-03-20T14:52:18.993Z,40.10
2019-03-20T14:54:50.867Z,40.30
2019-03-20T14:57:22.642Z,40.50
2019-03-20T14:59:54.518Z,40.50
2019-03-20T15:02:26.625Z,40.70
2019-03-20T15:04:58.603Z,40.50
2019-03-20T15:07:30.451Z,40.10
2019-03-20T15:10:02.303Z,40.10
2019-03-20T15:12:34.209Z,40.40
2019-03-20T15:15:11.153Z,40.30
2019-03-20T15:17:43.380Z,40.30
2019-03-20T15:20:15.298Z,40.30
2019-03-20T15:22:47.341Z,40.10
2019-03-20T15:25:19.448Z,39.70
2019-03-20T15:27:51.328Z,39.50
2019-03-20T15:30:23.961Z,39.40
2019-03-20T15:32:56.045Z,39.00
2019-03-20T15:35:27.942Z,38.90
2019-03-20T15:37:59.754Z,38.40
2019-03-20T15:40:31.872Z,38.20
2019-03-20T15:43:03.826Z,37.90
2019-03-20T15:45:35.724Z,37.80
2019-03-20T15:48:07.810Z,37.30
2019-03-20T15:50:39.626Z,36.50
2019-03-20T15:53:11.571Z,35.90
2019-03-20T15:55:43.742Z,35.00
2019-03-20T15:58:15.675Z,34.50
2019-03-20T16:00:47.551Z,34.00
2019-03-20T16:03:20.397Z,33.30
2019-03-20T16:05:52.359Z,33.10
2019-03-20T16:08:24.634Z,32.90
2019-03-20T16:11:05.998Z,32.50
2019-03-20T16:13:30.229Z,32.30
2019-03-20T16:16:02.070Z,32.10
2019-03-20T16:18:34.310Z,32.10
2019-03-20T16:21:06.168Z,31.70
2019-03-20T16:23:38.177Z,31.60
2019-03-20T16:26:10.166Z,31.10
2019-03-20T16:28:42.158Z,31.20
2019-03-20T16:31:14.170Z,31.30
2019-03-20T16:33:47.273Z,31.40
2019-03-20T16:36:19.210Z,31.40
2019-03-20T16:38:52.206Z,31.50
2019-03-20T16:41:24.102Z,31.40
2019-03-20T16:43:55.877Z,31.20
2019-03-20T16:46:27.779Z,31.20
2019-03-20T16:48:59.905Z,31.10
2019-03-20T16:51:31.723Z,31.00
2019-03-20T16:54:04.545Z,31.00
2019-03-20T16:56:37.445Z,31.00
2019-03-20T16:59:09.431Z,31.00
2019-03-20T17:01:41.609Z,30.90
2019-03-20T17:04:13.988Z,30.90
2019-03-20T17:06:45.825Z,30.70
2019-03-20T17:09:17.771Z,30.60
2019-03-20T17:11:49.587Z,30.60
2019-03-20T17:14:21.459Z,30.60
2019-03-20T17:16:53.370Z,30.60
2019-03-20T17:19:25.876Z,30.60
2019-03-20T17:21:57.844Z,30.50
2019-03-20T17:24:29.974Z,30.60
2019-03-20T17:27:02.178Z,30.60
2019-03-20T17:29:34.171Z,30.40
2019-03-20T17:32:06.195Z,30.50
2019-03-20T17:34:38.230Z,30.60
2019-03-20T17:37:10.087Z,30.50
2019-03-20T17:39:41.954Z,30.40
2019-03-20T17:42:14.218Z,30.00
2019-03-20T17:44:46.240Z,30.10
2019-03-20T17:47:18.185Z,30.00
2019-03-20T17:49:50.441Z,30.20
2019-03-20T17:52:22.347Z,30.20
2019-03-20T17:54:55.323Z,30.30
2019-03-20T17:57:27.218Z,30.10
2019-03-20T17:59:59.068Z,30.20
2019-03-20T18:02:30.910Z,30.20
2019-03-20T18:05:02.995Z,30.10
2019-03-20T18:07:34.882Z,30.10
2019-03-20T18:10:07.207Z,30.00
2019-03-20T18:12:39.160Z,30.00
2019-03-20T18:15:12.646Z,30.00
2019-03-20T18:17:44.480Z,29.70
2019-03-20T18:20:16.616Z,29.80
2019-03-20T18:22:48.629Z,29.40
2019-03-20T18:25:20.584Z,29.40
2019-03-20T18:27:53.814Z,29.80
2019-03-20T18:30:25.979Z,29.80
2019-03-20T18:32:57.844Z,29.60
2019-03-20T18:35:30.679Z,29.20
2019-03-20T18:38:02.567Z,28.90
2019-03-20T18:40:34.475Z,29.10
2019-03-20T18:43:06.476Z,29.30
2019-03-20T18:45:38.602Z,29.20
2019-03-20T18:48:10.513Z,29.10
2019-03-20T18:50:42.551Z,28.50
2019-03-20T18:53:14.675Z,28.40
2019-03-20T18:55:46.728Z,28.50
2019-03-20T18:58:18.595Z,28.40
2019-03-20T19:00:50.810Z,28.60
2019-03-20T19:03:22.884Z,28.70
2019-03-20T19:06:09.067Z,28.70
2019-03-20T19:08:41.174Z,28.70
2019-03-20T19:11:13.238Z,28.70
2019-03-20T19:13:45.435Z,28.80
2019-03-20T19:16:17.816Z,28.60
2019-03-20T19:18:51.395Z,28.80
2019-03-20T19:21:23.720Z,28.60
2019-03-20T19:23:55.572Z,28.70
2019-03-20T19:26:27.479Z,28.00
2019-03-20T19:28:59.404Z,28.10
2019-03-20T19:31:31.323Z,28.20
2019-03-20T19:34:04.596Z,28.00
2019-03-20T19:36:37.418Z,27.60
2019-03-20T19:39:11.364Z,27.10
2019-03-20T19:41:43.271Z,27.40
2019-03-20T19:44:15.400Z,27.40
2019-03-20T19:46:47.349Z,27.40
2019-03-20T19:49:19.235Z,27.70
2019-03-20T19:51:51.525Z,28.10
2019-03-20T19:54:23.407Z,28.50
2019-03-20T19:56:55.426Z,28.60
2019-03-20T19:59:27.498Z,28.90
2019-03-20T20:01:59.571Z,29.20
2019-03-20T20:04:31.576Z,29.00
2019-03-20T20:07:04.002Z,28.40
2019-03-20T20:09:35.905Z,28.10
2019-03-20T20:12:07.896Z,27.60
2019-03-20T20:14:39.765Z,27.50
2019-03-20T20:17:11.725Z,27.40
2019-03-20T20:19:43.517Z,27.40
2019-03-20T20:22:15.533Z,27.50
2019-03-20T20:24:47.408Z,27.30
2019-03-20T20:27:19.301Z,27.30
2019-03-20T20:29:52.313Z,27.00
2019-03-20T20:32:24.497Z,26.40
2019-03-20T20:34:56.400Z,26.20
2019-03-20T20:37:29.179Z,26.40
2019-03-20T20:40:01.115Z,26.30
2019-03-20T20:42:42.526Z,26.40
2019-03-20T20:45:08.165Z,26.90
2019-03-20T20:47:41.001Z,26.90
2019-03-20T20:50:13.875Z,27.10
2019-03-20T20:52:46.168Z,27.30
2019-03-20T20:55:18.112Z,27.40
2019-03-20T20:57:50.011Z,27.70
2019-03-20T21:00:22.270Z,27.60
2019-03-20T21:02:54.441Z,27.80
2019-03-20T21:05:26.300Z,27.20
2019-03-20T21:07:58.479Z,27.30
2019-03-20T21:10:30.312Z,27.00
2019-03-20T21:13:02.132Z,26.90
2019-03-20T21:15:50.042Z,27.00
2019-03-20T21:19:33.600Z,27.30
2019-03-20T21:23:02.774Z,27.20
2019-03-20T21:25:35.533Z,27.30
2019-03-20T21:28:59.339Z,27.50
2019-03-20T21:32:02.453Z,27.50
2019-03-20T21:35:41.867Z,27.60
2019-03-20T21:38:12.306Z,27.50
2019-03-20T21:41:56.325Z,27.80
2019-03-20T21:45:26.059Z,27.90
2019-03-20T21:47:58.756Z,28.30
2019-03-20T21:51:11.003Z,28.00
2019-03-20T21:54:43.915Z,28.30
2019-03-20T21:57:52.131Z,28.20
2019-03-20T22:01:21.718Z,28.00
2019-03-20T22:03:54.357Z,28.50
2019-03-20T22:07:23.751Z,28.40
2019-03-20T22:10:53.089Z,28.20
2019-03-20T22:13:58.067Z,28.40
2019-03-20T22:17:50.711Z,28.00
2019-03-20T22:20:53.537Z,28.10
2019-03-20T22:24:28.316Z,28.20
2019-03-20T22:28:33.216Z,28.30
2019-03-20T22:31:05.811Z,28.30
2019-03-20T22:34:31.456Z,28.20
2019-03-20T22:37:04.161Z,28.20
2019-03-20T22:40:56.001Z,28.50
2019-03-20T22:43:42.896Z,28.60
2019-03-20T22:47:34.936Z,28.70
2019-03-20T22:50:22.669Z,28.60
2019-03-20T22:53:56.408Z,28.60
2019-03-20T22:57:07.725Z,28.70
2019-03-20T22:59:40.363Z,28.30
2019-03-20T23:02:32.144Z,28.20
2019-03-20T23:05:04.949Z,28.40
2019-03-20T23:07:37.623Z,28.30
2019-03-20T23:10:13.885Z,28.60
2019-03-20T23:12:48.105Z,28.50
2019-03-20T23:15:21.130Z,28.20
2019-03-20T23:17:53.862Z,28.10
2019-03-20T23:20:27.118Z,28.50
2019-03-20T23:22:59.713Z,28.30
2019-03-20T23:25:32.301Z,28.40
2019-03-20T23:28:04.968Z,27.90
2019-03-20T23:30:37.590Z,27.00
2019-03-20T23:33:10.234Z,27.20
2019-03-20T23:35:42.904Z,27.70
2019-03-20T23:38:15.522Z,27.60
2019-03-20T23:40:48.190Z,27.20
2019-03-20T23:43:20.990Z,27.60
2019-03-20T23:45:53.572Z,28.00
2019-03-20T23:48:38.441Z,27.60
2019-03-20T23:51:17.169Z,28.10
2019-03-20T23:53:53.382Z,28.00
2019-03-20T23:56:27.700Z,28.40
2019-03-20T23:59:00.365Z,28.50
